Archival Weather

Annapolis United States Naval

Annapolis United States Naval, Maryland (KNAK)

Report from: Tuesday, June 6, 2023 2:54 PM UTC
Current time: Sunday, July 14, 2024 12:49 AM UTC

Current weather – Weather history – Daily summaries
Weather forecast

Present weatherHaze
Temperature22.8°C (73.0°F)
Dew point10.0°C (50.0°F)
Winds 7 kts (3.6 m/s, 8.1 mph) West (270°)
Visibility6 mi. (9.7 km)
Clouds Sky clear
Altimeter29.79 in.Hg (1009 mB)
Relative humidity44 %
Density altitude1,229 ft. (375 m)
Sea-level pressure100.9 kPa (1009 mB, 29.79 in.Hg)
Remarks Fully automated report
System requires maintenance
Automated weather observing station with precipitation discriminator
Pressure falling more quickly
Flight conditions Visual Meteorological Conditions
Raw dataKNAK 061454Z AUTO 27007KT 6SM HZ CLR 23/10 A2979 RMK AO2 SLP089 T02280100 58013 $
An error has occurred. This application may no longer respond until reloaded. Reload 🗙